Terminal Aerodrome Forecast
Issued by NWS

Home | Current Version | Previous Version | Text Only | Print | Product List | Glossary On
Versions: 1 2 3 4 5 6 7 8 9 10 11 12 13 14 15 16 17 18 19 20 21 22 23 24 25 26 27 28 29 30 31 32 33
000
FTUS45 KBOU 201727
TAFAPA
TAF
KAPA 201727Z 2018/2118 19008KT P6SM FEW120
     FM201900 17012G22KT P6SM FEW120 SCT220
     FM210300 18012KT P6SM SCT220
     FM210600 20010KT P6SM FEW200
     FM211000 21006KT P6SM FEW100 BKN140=

USA.gov is the U.S. government's official web portal to all federal, state and local government web resources and services.